createdAt,value
2023-02-27T00:02:51.327Z,2.72
2023-02-27T00:07:53.134Z,3.03
2023-02-27T00:12:56.221Z,2.63
2023-02-27T00:18:00.568Z,3.25
2023-02-27T00:23:02.179Z,2.75
2023-02-27T00:28:05.019Z,3.00
2023-02-27T00:33:06.989Z,3.28
2023-02-27T00:38:08.617Z,3.40
2023-02-27T00:43:10.235Z,3.40
2023-02-27T00:48:11.920Z,3.43
2023-02-27T00:53:13.563Z,2.30
2023-02-27T00:58:15.207Z,2.70
2023-02-27T01:03:16.835Z,3.00
2023-02-27T01:08:18.518Z,2.60
2023-02-27T01:13:20.155Z,2.20
2023-02-27T01:18:21.818Z,2.90
2023-02-27T01:23:23.606Z,2.73
2023-02-27T01:28:25.314Z,2.90
2023-02-27T01:33:26.977Z,2.70
2023-02-27T01:38:28.657Z,2.40
2023-02-27T01:43:30.390Z,1.90
2023-02-27T01:48:38.787Z,2.20
2023-02-27T01:53:43.764Z,2.03
2023-02-27T01:58:49.012Z,2.13
2023-02-27T02:04:14.787Z,2.50
2023-02-27T02:09:20.491Z,1.80
2023-02-27T02:14:22.101Z,2.43
2023-02-27T02:19:29.625Z,2.57
2023-02-27T02:24:56.322Z,2.80
2023-02-27T02:30:35.601Z,2.57
2023-02-27T02:35:37.200Z,2.67
2023-02-27T02:40:38.799Z,3.17
2023-02-27T02:45:52.461Z,3.10
2023-02-27T02:51:05.973Z,3.07
2023-02-27T02:56:19.628Z,2.63
2023-02-27T03:01:32.915Z,3.10
2023-02-27T03:06:40.106Z,4.07
2023-02-27T03:11:45.626Z,3.90
2023-02-27T03:16:53.276Z,3.47
2023-02-27T03:22:01.276Z,2.50
2023-02-27T03:27:05.844Z,2.83
2023-02-27T03:32:17.796Z,3.20
2023-02-27T03:37:27.157Z,2.33
2023-02-27T03:42:53.582Z,2.83
2023-02-27T03:48:01.169Z,2.47
2023-02-27T03:53:11.327Z,2.30
2023-02-27T03:58:14.429Z,2.50
2023-02-27T04:03:16.477Z,2.80
2023-02-27T04:08:39.647Z,2.83
2023-02-27T04:14:06.830Z,3.47
2023-02-27T04:19:30.396Z,3.47
2023-02-27T04:24:49.950Z,3.43
2023-02-27T04:30:01.315Z,3.40
2023-02-27T04:35:15.731Z,3.93
2023-02-27T04:40:28.287Z,3.80
2023-02-27T04:45:33.466Z,3.80
2023-02-27T04:50:44.819Z,3.63
2023-02-27T04:55:51.717Z,3.80
2023-02-27T05:01:03.913Z,3.83
2023-02-27T05:06:08.081Z,3.40
2023-02-27T05:11:18.269Z,3.30
2023-02-27T05:16:33.121Z,3.80
2023-02-27T05:21:48.842Z,3.60
2023-02-27T05:27:12.187Z,4.27
2023-02-27T05:32:35.080Z,3.90
2023-02-27T05:37:45.505Z,3.33
2023-02-27T05:43:00.816Z,2.70
2023-02-27T05:48:12.438Z,4.13
2023-02-27T05:53:17.983Z,4.73
2023-02-27T05:58:25.670Z,4.33
2023-02-27T06:03:29.769Z,3.70
2023-02-27T06:08:31.502Z,3.20
2023-02-27T06:13:33.237Z,3.83
2023-02-27T06:18:34.857Z,3.47
2023-02-27T06:23:36.459Z,3.57
2023-02-27T06:28:38.359Z,3.70
2023-02-27T06:33:40.012Z,4.33
2023-02-27T06:38:41.638Z,4.23
2023-02-27T06:43:43.394Z,3.77
2023-02-27T06:48:45.628Z,3.43
2023-02-27T06:53:47.567Z,3.13
2023-02-27T06:58:49.197Z,3.40
2023-02-27T07:03:50.975Z,4.60
2023-02-27T07:09:01.592Z,3.53
2023-02-27T07:14:08.006Z,3.77
2023-02-27T07:19:10.634Z,3.57
2023-02-27T07:24:12.504Z,3.90
2023-02-27T07:29:15.005Z,3.10
2023-02-27T07:34:16.895Z,3.53
2023-02-27T07:39:19.455Z,3.53
2023-02-27T07:44:21.141Z,3.83
2023-02-27T07:49:22.786Z,4.13
2023-02-27T07:54:24.431Z,3.77
2023-02-27T07:59:26.037Z,3.35
2023-02-27T08:04:27.674Z,3.23
2023-02-27T08:09:30.832Z,4.18
2023-02-27T08:14:32.496Z,4.38
2023-02-27T08:19:34.389Z,3.55
2023-02-27T08:24:36.336Z,3.45
2023-02-27T08:29:38.057Z,3.75
2023-02-27T08:34:39.803Z,3.47
2023-02-27T08:39:41.538Z,2.65
2023-02-27T08:44:43.450Z,3.65
2023-02-27T08:49:45.051Z,3.53
2023-02-27T08:54:46.711Z,3.90
2023-02-27T08:59:48.363Z,3.72
2023-02-27T09:04:50.110Z,3.05
2023-02-27T09:09:51.785Z,4.00
2023-02-27T09:14:53.559Z,3.30
2023-02-27T09:19:57.286Z,3.47
2023-02-27T09:25:00.261Z,3.42
2023-02-27T09:30:02.150Z,2.92
2023-02-27T09:35:04.256Z,2.88
2023-02-27T09:40:10.715Z,3.35
2023-02-27T09:45:24.767Z,2.78
2023-02-27T09:50:40.585Z,2.85
2023-02-27T09:55:44.276Z,3.33
2023-02-27T10:00:51.230Z,2.30
2023-02-27T10:06:30.204Z,2.63
2023-02-27T10:11:43.815Z,3.08
2023-02-27T10:16:50.002Z,3.13
2023-02-27T10:21:56.678Z,2.85
2023-02-27T10:27:01.338Z,3.28
2023-02-27T10:32:14.949Z,3.67
2023-02-27T10:37:20.908Z,4.45
2023-02-27T10:42:26.043Z,3.20
2023-02-27T10:47:27.753Z,3.67
2023-02-27T10:52:31.023Z,3.10
2023-02-27T10:57:42.246Z,3.00
2023-02-27T11:02:44.469Z,3.35
2023-02-27T11:07:46.288Z,3.88
2023-02-27T11:13:05.673Z,3.35
2023-02-27T11:18:29.370Z,3.33
2023-02-27T11:23:34.086Z,3.45
2023-02-27T11:28:35.809Z,3.15
2023-02-27T11:33:52.313Z,2.97
2023-02-27T11:38:55.874Z,2.83
2023-02-27T11:43:59.227Z,2.78
2023-02-27T11:49:21.981Z,2.28
2023-02-27T11:54:36.439Z,2.13
2023-02-27T11:59:41.810Z,2.22
2023-02-27T12:04:47.971Z,2.58
2023-02-27T12:09:59.132Z,3.70
2023-02-27T12:15:18.128Z,2.63
2023-02-27T12:20:38.330Z,2.38
2023-02-27T12:25:40.001Z,2.13
2023-02-27T12:31:00.196Z,2.53
2023-02-27T12:36:03.481Z,1.85
2023-02-27T12:41:14.853Z,2.33
2023-02-27T12:46:31.712Z,1.83
2023-02-27T12:51:51.275Z,2.25
2023-02-27T12:57:06.096Z,2.13
2023-02-27T13:02:13.845Z,2.28
2023-02-27T13:07:43.840Z,2.38
2023-02-27T13:12:57.335Z,2.72
2023-02-27T13:18:09.503Z,2.17
2023-02-27T13:23:18.942Z,2.28
2023-02-27T13:28:25.574Z,2.80
2023-02-27T13:33:53.130Z,2.33
2023-02-27T13:38:56.138Z,2.40
2023-02-27T13:44:19.093Z,2.33
2023-02-27T13:49:30.188Z,1.90
2023-02-27T13:54:34.431Z,1.70
2023-02-27T13:59:41.950Z,1.90
2023-02-27T14:04:52.768Z,2.53
2023-02-27T14:10:08.927Z,2.15
2023-02-27T14:15:17.898Z,1.35
2023-02-27T14:20:19.552Z,1.00
2023-02-27T14:25:26.456Z,1.17
2023-02-27T14:30:38.226Z,1.20
2023-02-27T14:35:45.607Z,1.00
2023-02-27T14:41:29.300Z,0.90
2023-02-27T14:46:39.314Z,0.80
2023-02-27T14:51:41.151Z,0.98
2023-02-27T14:56:55.025Z,0.90
2023-02-27T15:01:59.164Z,1.25
2023-02-27T15:07:01.137Z,0.98
2023-02-27T15:12:04.780Z,1.42
2023-02-27T15:17:19.079Z,1.13
2023-02-27T15:22:38.108Z,1.80
2023-02-27T15:27:42.495Z,1.93
2023-02-27T15:32:44.487Z,2.10
2023-02-27T15:37:54.481Z,1.38
2023-02-27T15:42:57.235Z,1.30
2023-02-27T15:47:59.234Z,1.30
2023-02-27T15:53:20.407Z,1.40
2023-02-27T15:58:25.306Z,1.60
2023-02-27T16:03:33.098Z,1.52
2023-02-27T16:08:34.797Z,1.75
2023-02-27T16:13:41.190Z,1.65
2023-02-27T16:18:54.729Z,1.20
2023-02-27T16:24:20.193Z,0.82
2023-02-27T16:29:23.861Z,1.20
2023-02-27T16:34:47.545Z,1.35
2023-02-27T16:39:52.255Z,1.63
2023-02-27T16:44:53.925Z,1.40
2023-02-27T16:49:55.589Z,1.67
2023-02-27T16:54:57.309Z,1.60
2023-02-27T16:59:58.975Z,2.80
2023-02-27T17:05:00.658Z,3.55
2023-02-27T17:10:03.056Z,4.03
2023-02-27T17:15:05.076Z,4.22
2023-02-27T17:20:07.551Z,3.67
2023-02-27T17:25:10.528Z,4.35
2023-02-27T17:30:14.265Z,3.85
2023-02-27T17:35:15.891Z,4.82
2023-02-27T17:40:17.970Z,5.18
2023-02-27T17:45:21.165Z,5.97
2023-02-27T17:50:22.797Z,5.82
2023-02-27T17:55:24.395Z,5.68
2023-02-27T18:00:26.122Z,5.60
2023-02-27T18:05:27.872Z,6.40
2023-02-27T18:10:29.473Z,7.80
2023-02-27T18:15:31.829Z,7.38
2023-02-27T18:20:33.456Z,6.03
2023-02-27T18:25:35.956Z,7.57
2023-02-27T18:30:39.322Z,6.60
2023-02-27T18:35:40.942Z,6.20
2023-02-27T18:40:42.906Z,7.07
2023-02-27T18:45:44.545Z,4.78
2023-02-27T18:50:46.201Z,4.70
2023-02-27T18:55:47.878Z,5.57
2023-02-27T19:00:49.499Z,4.40
2023-02-27T19:05:51.316Z,4.53
2023-02-27T19:10:53.162Z,4.18
2023-02-27T19:15:54.871Z,4.78
2023-02-27T19:20:57.449Z,3.58
2023-02-27T19:26:02.929Z,4.03
2023-02-27T19:31:09.637Z,4.60
2023-02-27T19:36:14.265Z,5.80
2023-02-27T19:41:17.911Z,7.70
2023-02-27T19:46:32.659Z,6.90
2023-02-27T19:51:34.574Z,5.82
2023-02-27T19:56:36.250Z,4.47
2023-02-27T20:01:39.009Z,4.25
2023-02-27T20:06:44.041Z,4.30
2023-02-27T20:11:47.975Z,4.05
2023-02-27T20:16:49.841Z,4.37
2023-02-27T20:21:55.449Z,4.37
2023-02-27T20:26:59.234Z,6.68
2023-02-27T20:32:01.350Z,7.60
2023-02-27T20:37:03.261Z,7.47
2023-02-27T20:42:05.895Z,5.90
2023-02-27T20:47:09.067Z,7.38
2023-02-27T20:52:10.733Z,7.22
2023-02-27T20:57:12.394Z,7.87
2023-02-27T21:02:14.059Z,7.32
2023-02-27T21:07:18.678Z,8.15
2023-02-27T21:12:20.341Z,7.38
2023-02-27T21:17:23.319Z,6.82
2023-02-27T21:22:24.924Z,6.77
2023-02-27T21:27:26.684Z,6.85
2023-02-27T21:32:28.296Z,6.35
2023-02-27T21:37:29.923Z,6.63
2023-02-27T21:42:31.867Z,7.35
2023-02-27T21:47:33.485Z,8.23
2023-02-27T21:52:35.173Z,7.05
2023-02-27T21:57:38.693Z,7.93
2023-02-27T22:02:40.442Z,8.65
2023-02-27T22:07:42.082Z,6.38
2023-02-27T22:12:43.703Z,7.30
2023-02-27T22:17:45.372Z,6.13
2023-02-27T22:22:47.360Z,7.40
2023-02-27T22:27:48.975Z,7.70
2023-02-27T22:32:50.603Z,7.57
2023-02-27T22:37:52.266Z,9.27
2023-02-27T22:42:53.884Z,8.77
2023-02-27T22:47:55.493Z,7.00
2023-02-27T22:52:57.100Z,8.40
2023-02-27T22:57:58.713Z,7.88
2023-02-27T23:03:00.299Z,6.72
2023-02-27T23:08:01.918Z,6.60
2023-02-27T23:13:03.542Z,7.13
2023-02-27T23:18:06.261Z,8.07
2023-02-27T23:23:09.090Z,7.53
2023-02-27T23:28:10.750Z,6.13
2023-02-27T23:33:12.466Z,5.80
2023-02-27T23:38:14.144Z,6.78
2023-02-27T23:43:34.432Z,6.25
2023-02-27T23:48:36.541Z,7.27
2023-02-27T23:53:40.380Z,7.93
2023-02-27T23:58:42.148Z,6.87
